createdAt,value
2023-03-15T00:00:56.589Z,1.10
2023-03-15T00:02:00.318Z,1.20
2023-03-15T00:03:04.869Z,0.80
2023-03-15T00:04:08.202Z,1.00
2023-03-15T00:05:13.071Z,1.15
2023-03-15T00:06:17.166Z,1.40
2023-03-15T00:07:19.646Z,1.00
2023-03-15T00:08:23.507Z,1.30
2023-03-15T00:09:25.889Z,1.50
2023-03-15T00:10:29.514Z,1.60
2023-03-15T00:11:34.013Z,1.50
2023-03-15T00:12:37.455Z,1.33
2023-03-15T00:13:39.681Z,1.45
2023-03-15T00:14:43.265Z,1.35
2023-03-15T00:15:47.249Z,1.42
2023-03-15T00:16:51.151Z,1.40
2023-03-15T00:17:53.670Z,1.30
2023-03-15T00:18:57.176Z,1.25
2023-03-15T00:19:59.748Z,1.30
2023-03-15T00:21:03.278Z,1.48
2023-03-15T00:22:05.750Z,1.10
2023-03-15T00:23:09.621Z,1.25
2023-03-15T00:24:12.064Z,1.40
2023-03-15T00:25:15.995Z,1.10
2023-03-15T00:26:18.410Z,1.20
2023-03-15T00:27:23.254Z,1.10
2023-03-15T00:28:25.745Z,1.17
2023-03-15T00:29:29.063Z,1.13
2023-03-15T00:30:31.630Z,0.98
2023-03-15T00:31:36.183Z,1.30
2023-03-15T00:32:38.536Z,0.90
2023-03-15T00:33:42.040Z,1.15
2023-03-15T00:34:49.114Z,1.83
2023-03-15T00:35:54.030Z,1.40
2023-03-15T00:36:57.393Z,1.45
2023-03-15T00:38:00.843Z,1.30
2023-03-15T00:39:04.065Z,1.00
2023-03-15T00:40:07.713Z,1.10
2023-03-15T00:41:13.133Z,1.50
2023-03-15T00:42:16.218Z,1.25
2023-03-15T00:43:20.837Z,1.00
2023-03-15T00:44:23.727Z,1.10
2023-03-15T00:45:27.201Z,1.20
2023-03-15T00:46:29.418Z,1.30
2023-03-15T00:47:33.737Z,1.08
2023-03-15T00:48:36.029Z,1.45
2023-03-15T00:49:39.345Z,1.33
2023-03-15T00:50:42.041Z,1.30
2023-03-15T00:51:45.306Z,1.45
2023-03-15T00:52:47.621Z,1.25
2023-03-15T00:53:52.412Z,1.55
2023-03-15T00:54:55.649Z,1.30
2023-03-15T00:55:59.426Z,1.20
2023-03-15T00:57:02.200Z,1.50
2023-03-15T00:58:05.604Z,1.27
2023-03-15T00:59:10.477Z,1.45
2023-03-15T01:00:15.233Z,1.70
2023-03-15T01:01:21.129Z,1.42
2023-03-15T01:02:23.332Z,1.27
2023-03-15T01:03:28.536Z,1.40
2023-03-15T01:04:31.479Z,1.30
2023-03-15T01:05:34.582Z,1.70
2023-03-15T01:06:36.902Z,1.80
2023-03-15T01:07:40.050Z,1.50
2023-03-15T01:08:42.637Z,1.10
2023-03-15T01:09:48.453Z,1.05
2023-03-15T01:10:50.729Z,1.25
2023-03-15T01:11:53.882Z,1.40
2023-03-15T01:12:56.024Z,0.80
2023-03-15T01:14:00.414Z,0.80
2023-03-15T01:15:06.550Z,0.60
2023-03-15T01:16:11.205Z,1.08
2023-03-15T01:17:13.551Z,0.77
2023-03-15T01:18:16.685Z,0.75
2023-03-15T01:19:18.766Z,0.70
2023-03-15T01:20:22.485Z,1.00
2023-03-15T01:21:24.977Z,0.80
2023-03-15T01:22:28.868Z,0.75
2023-03-15T01:23:31.239Z,0.80
2023-03-15T01:24:34.394Z,0.90
2023-03-15T01:25:36.500Z,1.10
2023-03-15T01:26:39.732Z,0.70
2023-03-15T01:27:41.816Z,0.90
2023-03-15T01:28:45.477Z,0.70
2023-03-15T01:29:47.709Z,1.35
2023-03-15T01:30:54.208Z,1.77
2023-03-15T01:31:57.118Z,0.95
2023-03-15T01:33:00.346Z,0.98
2023-03-15T01:34:02.579Z,0.90
2023-03-15T01:35:09.599Z,0.90
2023-03-15T01:36:12.571Z,0.90
2023-03-15T01:37:16.214Z,0.90
2023-03-15T01:38:21.242Z,0.80
2023-03-15T01:39:24.508Z,1.00
2023-03-15T01:40:26.744Z,1.00
2023-03-15T01:41:30.051Z,0.93
2023-03-15T01:42:32.283Z,0.77
2023-03-15T01:43:35.497Z,0.90
2023-03-15T01:44:53.046Z,0.90
2023-03-15T01:46:15.947Z,1.00
2023-03-15T01:47:20.695Z,1.00
2023-03-15T01:48:26.809Z,1.00
2023-03-15T01:49:33.042Z,1.00
2023-03-15T01:50:35.868Z,1.05
2023-03-15T01:51:43.173Z,0.98
2023-03-15T01:52:45.514Z,0.90
2023-03-15T01:53:59.398Z,1.00
2023-03-15T01:55:07.335Z,1.15
2023-03-15T01:56:11.635Z,0.85
2023-03-15T01:57:18.988Z,0.88
2023-03-15T01:58:25.017Z,1.10
2023-03-15T01:59:32.623Z,0.90
2023-03-15T02:00:35.212Z,0.98
2023-03-15T02:01:46.014Z,0.90
2023-03-15T02:02:52.400Z,1.10
2023-03-15T02:04:05.239Z,1.15
2023-03-15T02:05:14.194Z,1.02
2023-03-15T02:06:20.479Z,1.00
2023-03-15T02:07:29.894Z,1.00
2023-03-15T02:08:37.425Z,1.10
2023-03-15T02:09:49.042Z,1.17
2023-03-15T02:10:54.292Z,0.70
2023-03-15T02:12:00.248Z,0.73
2023-03-15T02:13:03.640Z,0.88
2023-03-15T02:14:07.815Z,0.80
2023-03-15T02:15:13.494Z,0.88
2023-03-15T02:16:17.685Z,1.10
2023-03-15T02:17:37.145Z,0.93
2023-03-15T02:18:40.506Z,0.90
2023-03-15T02:19:53.916Z,1.45
2023-03-15T02:21:02.205Z,1.13
2023-03-15T02:22:20.013Z,0.95
2023-03-15T02:23:24.027Z,1.10
2023-03-15T02:24:43.746Z,1.13
2023-03-15T02:25:55.453Z,1.58
2023-03-15T02:26:59.193Z,1.30
2023-03-15T02:28:06.048Z,1.30
2023-03-15T02:29:09.330Z,1.30
2023-03-15T02:30:12.592Z,1.48
2023-03-15T02:31:16.456Z,1.60
2023-03-15T02:32:18.576Z,1.38
2023-03-15T02:33:26.014Z,1.50
2023-03-15T02:34:28.454Z,1.50
2023-03-15T02:35:33.878Z,1.42
2023-03-15T02:36:37.330Z,1.45
2023-03-15T02:37:46.002Z,1.33
2023-03-15T02:38:49.337Z,1.58
2023-03-15T02:39:52.494Z,1.60
2023-03-15T02:40:54.609Z,1.60
2023-03-15T02:41:59.770Z,1.60
2023-03-15T02:43:11.188Z,1.58
2023-03-15T02:44:17.675Z,1.50
2023-03-15T02:45:20.975Z,1.80
2023-03-15T02:46:24.789Z,1.30
2023-03-15T02:47:30.379Z,1.48
2023-03-15T02:48:36.811Z,1.85
2023-03-15T02:49:42.436Z,1.95
2023-03-15T02:50:45.626Z,2.05
2023-03-15T02:51:47.727Z,1.63
2023-03-15T02:52:52.576Z,1.60
2023-03-15T02:53:54.716Z,1.70
2023-03-15T02:54:57.942Z,1.70
2023-03-15T02:56:00.268Z,2.10
2023-03-15T02:57:04.164Z,1.63
2023-03-15T02:58:09.500Z,1.90
2023-03-15T02:59:13.534Z,1.90
2023-03-15T03:00:16.257Z,2.35
2023-03-15T03:01:20.564Z,1.95
2023-03-15T03:02:23.919Z,1.92
2023-03-15T03:03:27.148Z,1.80
2023-03-15T03:04:29.364Z,2.30
2023-03-15T03:05:32.558Z,1.50
2023-03-15T03:06:34.694Z,1.70
2023-03-15T03:07:39.304Z,1.60
2023-03-15T03:08:46.959Z,1.42
2023-03-15T03:09:55.422Z,1.60
2023-03-15T03:10:57.974Z,1.67
2023-03-15T03:12:01.078Z,1.40
2023-03-15T03:13:04.159Z,1.55
2023-03-15T03:14:14.173Z,1.65
2023-03-15T03:15:17.114Z,1.58
2023-03-15T03:16:23.240Z,2.00
2023-03-15T03:17:25.580Z,1.98
2023-03-15T03:18:30.728Z,1.40
2023-03-15T03:19:32.925Z,1.98
2023-03-15T03:20:36.026Z,1.50
2023-03-15T03:21:38.091Z,1.80
2023-03-15T03:22:42.307Z,2.03
2023-03-15T03:23:46.319Z,1.67
2023-03-15T03:24:49.577Z,1.75
2023-03-15T03:25:52.312Z,1.73
2023-03-15T03:26:58.199Z,1.85
2023-03-15T03:28:04.484Z,2.10
2023-03-15T03:29:08.404Z,2.40
2023-03-15T03:30:13.935Z,1.83
2023-03-15T03:31:24.124Z,1.73
2023-03-15T03:32:28.163Z,1.90
2023-03-15T03:33:31.637Z,2.55
2023-03-15T03:34:33.760Z,1.80
2023-03-15T03:35:36.992Z,1.70
2023-03-15T03:36:39.591Z,2.42
2023-03-15T03:37:42.748Z,1.67
2023-03-15T03:38:50.761Z,1.90
2023-03-15T03:39:54.518Z,1.85
2023-03-15T03:40:56.597Z,1.88
2023-03-15T03:41:59.696Z,2.05
2023-03-15T03:43:01.884Z,2.30
2023-03-15T03:44:06.126Z,2.10
2023-03-15T03:45:09.600Z,2.03
2023-03-15T03:46:19.012Z,2.00
2023-03-15T03:47:26.502Z,2.13
2023-03-15T03:48:29.880Z,2.15
2023-03-15T03:49:32.079Z,1.90
2023-03-15T03:50:35.246Z,2.13
2023-03-15T03:51:37.847Z,2.25
2023-03-15T03:52:43.896Z,2.30
2023-03-15T03:53:50.880Z,2.40
2023-03-15T03:54:54.088Z,2.38
2023-03-15T03:55:56.261Z,2.30
2023-03-15T03:57:00.089Z,2.25
2023-03-15T03:58:06.493Z,3.05
2023-03-15T03:59:15.593Z,2.90
2023-03-15T04:00:26.113Z,2.70
2023-03-15T04:01:30.630Z,2.83
2023-03-15T04:02:34.088Z,2.60
2023-03-15T04:03:42.997Z,2.50
2023-03-15T04:04:50.417Z,2.45
2023-03-15T04:05:57.626Z,2.05
2023-03-15T04:07:00.368Z,2.25
2023-03-15T04:08:09.821Z,2.28
2023-03-15T04:09:16.077Z,2.38
2023-03-15T04:10:26.880Z,2.20
2023-03-15T04:11:29.231Z,2.78
2023-03-15T04:12:36.122Z,2.20
2023-03-15T04:13:38.744Z,2.22
2023-03-15T04:14:41.899Z,2.28
2023-03-15T04:15:46.269Z,2.55
2023-03-15T04:16:50.939Z,2.40
2023-03-15T04:17:56.105Z,1.95
2023-03-15T04:19:01.108Z,2.08
2023-03-15T04:20:08.909Z,2.17
2023-03-15T04:21:14.398Z,1.65
2023-03-15T04:22:19.517Z,2.10
2023-03-15T04:23:35.526Z,2.40
2023-03-15T04:25:11.647Z,2.70
2023-03-15T04:26:37.609Z,2.05
2023-03-15T04:27:59.597Z,2.55
2023-03-15T04:29:22.463Z,1.90
2023-03-15T04:30:37.844Z,1.80
2023-03-15T04:32:02.139Z,2.10
2023-03-15T04:33:24.561Z,2.25
2023-03-15T04:34:51.781Z,2.55
2023-03-15T04:36:18.439Z,2.17
2023-03-15T04:37:42.487Z,2.50
2023-03-15T04:39:07.270Z,2.70
2023-03-15T04:40:30.373Z,2.72
2023-03-15T04:41:55.010Z,2.70
2023-03-15T04:43:33.352Z,2.08
2023-03-15T04:44:50.847Z,3.22
2023-03-15T04:46:14.348Z,2.60
2023-03-15T04:47:33.562Z,2.25
2023-03-15T04:48:59.850Z,2.20
2023-03-15T04:50:30.733Z,2.05
2023-03-15T04:51:43.778Z,2.60
2023-03-15T04:53:10.418Z,2.13
2023-03-15T04:54:23.409Z,2.75
2023-03-15T04:55:49.083Z,2.47
2023-03-15T04:57:15.089Z,2.05
2023-03-15T04:58:31.098Z,2.65
2023-03-15T04:59:59.801Z,2.20
2023-03-15T05:01:15.802Z,2.65
2023-03-15T05:02:55.111Z,2.60
2023-03-15T05:04:18.209Z,2.50
2023-03-15T05:05:34.481Z,4.38
2023-03-15T05:07:10.024Z,3.00
2023-03-15T05:08:12.095Z,2.60
2023-03-15T05:09:41.156Z,2.70
2023-03-15T05:10:46.268Z,3.10
2023-03-15T05:12:01.154Z,2.85
2023-03-15T05:13:11.716Z,3.50
2023-03-15T05:14:35.203Z,2.90
2023-03-15T05:15:40.502Z,3.53
2023-03-15T05:17:04.062Z,3.20
2023-03-15T05:18:29.027Z,3.08
2023-03-15T05:19:49.760Z,6.68
2023-03-15T05:21:07.761Z,6.07
2023-03-15T05:22:25.689Z,4.65
2023-03-15T05:23:52.424Z,3.55
2023-03-15T05:25:13.930Z,4.85
2023-03-15T05:26:36.284Z,4.75
2023-03-15T05:28:11.927Z,5.00
2023-03-15T05:29:44.246Z,4.72
2023-03-15T05:31:07.463Z,3.65
2023-03-15T05:32:28.320Z,3.60
2023-03-15T05:33:56.390Z,3.38
2023-03-15T05:35:28.710Z,3.20
2023-03-15T05:36:41.978Z,4.75
2023-03-15T05:38:04.294Z,5.53
2023-03-15T05:39:23.085Z,4.20
2023-03-15T05:40:32.999Z,4.10
2023-03-15T05:41:54.182Z,3.35
2023-03-15T05:43:07.704Z,3.10
2023-03-15T05:44:25.003Z,3.10
2023-03-15T05:45:47.500Z,3.30
2023-03-15T05:47:28.785Z,4.68
2023-03-15T05:48:44.636Z,4.57
2023-03-15T05:50:22.141Z,3.45
2023-03-15T05:51:32.638Z,3.13
2023-03-15T05:53:03.432Z,3.30
2023-03-15T05:54:14.933Z,3.00
2023-03-15T05:55:45.986Z,3.38
2023-03-15T05:57:01.391Z,3.78
2023-03-15T05:58:11.522Z,3.50
2023-03-15T05:59:21.879Z,3.58
2023-03-15T06:00:46.383Z,5.45
2023-03-15T06:02:02.562Z,4.18
2023-03-15T06:03:13.280Z,4.10
2023-03-15T06:04:26.753Z,3.67
2023-03-15T06:05:33.675Z,4.30
2023-03-15T06:06:38.599Z,3.80
2023-03-15T06:07:44.724Z,3.38
2023-03-15T06:08:47.004Z,4.10
2023-03-15T06:09:50.067Z,4.28
2023-03-15T06:10:52.315Z,4.30
2023-03-15T06:11:56.628Z,3.97
2023-03-15T06:12:58.745Z,4.00
2023-03-15T06:14:03.137Z,4.68
2023-03-15T06:15:18.190Z,4.20
2023-03-15T06:16:20.744Z,4.30
2023-03-15T06:17:27.608Z,3.38
2023-03-15T06:18:29.782Z,5.80
2023-03-15T06:19:32.950Z,4.47
2023-03-15T06:20:38.527Z,3.88
2023-03-15T06:21:45.670Z,3.38
2023-03-15T06:22:56.890Z,3.67
2023-03-15T06:24:10.522Z,3.67
2023-03-15T06:25:12.956Z,3.25
2023-03-15T06:26:18.766Z,4.20
2023-03-15T06:27:22.647Z,4.25
2023-03-15T06:28:28.152Z,4.30
2023-03-15T06:29:32.828Z,5.60
2023-03-15T06:30:37.034Z,5.45
2023-03-15T06:31:39.264Z,4.00
2023-03-15T06:32:45.843Z,3.97
2023-03-15T06:33:48.823Z,3.55
2023-03-15T06:34:52.150Z,3.50
2023-03-15T06:35:57.538Z,3.80
2023-03-15T06:36:59.596Z,3.53
2023-03-15T06:38:02.768Z,3.90
2023-03-15T06:39:05.687Z,4.10
2023-03-15T06:40:11.409Z,3.90
2023-03-15T06:41:15.319Z,3.35
2023-03-15T06:42:21.609Z,3.50
2023-03-15T06:43:23.845Z,4.45
2023-03-15T06:44:27.036Z,4.15
2023-03-15T06:45:33.346Z,3.83
2023-03-15T06:46:36.539Z,3.65
2023-03-15T06:47:39.648Z,4.05
2023-03-15T06:48:43.306Z,4.00
2023-03-15T06:49:50.315Z,3.60
2023-03-15T06:50:53.978Z,3.67
2023-03-15T06:51:57.608Z,3.72
2023-03-15T06:53:00.936Z,3.50
2023-03-15T06:54:03.270Z,4.07
2023-03-15T06:55:10.260Z,4.15
2023-03-15T06:56:12.419Z,4.00
2023-03-15T06:57:15.606Z,3.80
2023-03-15T06:58:18.116Z,4.15
2023-03-15T06:59:21.278Z,4.50
2023-03-15T07:00:23.707Z,4.63
2023-03-15T07:01:26.876Z,4.70
2023-03-15T07:02:33.701Z,4.63
2023-03-15T07:03:36.845Z,5.20
2023-03-15T07:04:39.214Z,4.80
2023-03-15T07:05:42.385Z,4.93
2023-03-15T07:06:44.439Z,4.57
2023-03-15T07:07:49.062Z,3.97
2023-03-15T07:08:51.181Z,3.85
2023-03-15T07:09:55.271Z,4.57
2023-03-15T07:10:57.813Z,5.25
2023-03-15T07:12:01.038Z,4.40
2023-03-15T07:13:04.313Z,4.00
2023-03-15T07:14:07.461Z,4.38
2023-03-15T07:15:10.658Z,4.90
2023-03-15T07:16:13.989Z,4.60
2023-03-15T07:17:16.338Z,3.90
2023-03-15T07:18:19.379Z,5.45
2023-03-15T07:19:22.789Z,5.28
2023-03-15T07:20:24.971Z,4.80
2023-03-15T07:21:28.835Z,5.75
2023-03-15T07:22:31.067Z,5.10
2023-03-15T07:23:35.834Z,5.25
2023-03-15T07:24:37.940Z,5.00
2023-03-15T07:25:54.071Z,5.35
2023-03-15T07:33:34.690Z,4.85
2023-03-15T07:39:38.238Z,5.47
2023-03-15T07:40:55.969Z,4.90
2023-03-15T08:31:30.818Z,6.30
2023-03-15T08:36:47.059Z,5.70
2023-03-15T08:45:27.118Z,5.32
2023-03-15T08:49:46.804Z,5.40
2023-03-15T08:51:04.803Z,6.10
2023-03-15T08:52:22.140Z,6.53
2023-03-15T08:58:20.433Z,5.78
2023-03-15T09:01:31.110Z,5.13
2023-03-15T09:05:41.369Z,3.88
2023-03-15T09:07:15.421Z,5.03
2023-03-15T09:08:53.167Z,4.13
2023-03-15T09:10:26.672Z,4.25
2023-03-15T09:40:39.106Z,3.75
2023-03-15T09:45:37.265Z,4.38
2023-03-15T09:46:44.571Z,3.90
2023-03-15T09:47:59.690Z,5.65
2023-03-15T09:50:48.126Z,5.72
2023-03-15T09:51:58.623Z,4.43
2023-03-15T09:56:04.523Z,4.30
2023-03-15T09:57:20.913Z,4.82
2023-03-15T10:09:25.650Z,3.55
2023-03-15T10:35:08.655Z,3.10
2023-03-15T11:33:28.564Z,1.50
2023-03-15T11:56:48.574Z,1.25
2023-03-15T11:58:51.292Z,1.63
2023-03-15T12:00:09.905Z,1.02
2023-03-15T12:01:42.828Z,1.60
2023-03-15T12:04:51.550Z,1.27
2023-03-15T12:06:01.923Z,1.50
2023-03-15T12:07:11.254Z,1.55
2023-03-15T12:16:24.114Z,1.45
2023-03-15T12:21:16.374Z,1.20
2023-03-15T12:23:16.615Z,0.88
2023-03-15T12:24:40.008Z,0.95
2023-03-15T12:25:55.090Z,1.45
2023-03-15T12:28:30.378Z,1.17
2023-03-15T12:31:23.755Z,1.50
2023-03-15T12:32:46.121Z,1.90
2023-03-15T12:33:54.008Z,1.00
2023-03-15T12:42:00.656Z,1.20
2023-03-15T12:43:19.898Z,1.65
2023-03-15T12:44:30.362Z,1.50
2023-03-15T12:51:28.882Z,1.00
2023-03-15T13:03:34.368Z,1.50
2023-03-15T13:04:53.853Z,1.20
2023-03-15T13:14:46.731Z,1.08
2023-03-15T13:19:49.451Z,1.30
2023-03-15T13:21:08.607Z,1.00
2023-03-15T13:22:34.810Z,1.15
2023-03-15T13:28:32.307Z,1.02
2023-03-15T13:31:20.019Z,1.10
2023-03-15T13:32:24.525Z,0.93
2023-03-15T13:34:12.045Z,1.23
2023-03-15T13:40:36.102Z,1.15
2023-03-15T13:41:56.144Z,1.10
2023-03-15T13:43:17.652Z,1.15
2023-03-15T13:44:41.110Z,1.20
2023-03-15T14:03:25.824Z,1.00
2023-03-15T14:09:06.050Z,0.90
2023-03-15T14:10:30.431Z,0.90
2023-03-15T14:27:30.699Z,1.10
2023-03-15T14:28:33.615Z,1.15
2023-03-15T15:28:34.783Z,1.10
2023-03-15T16:23:18.980Z,1.73
2023-03-15T16:24:24.978Z,1.65
2023-03-15T16:39:24.258Z,1.55
2023-03-15T16:47:20.617Z,2.20
2023-03-15T16:55:16.767Z,2.22
2023-03-15T17:05:34.961Z,1.80
2023-03-15T17:23:04.332Z,1.80
2023-03-15T17:30:09.845Z,1.83
2023-03-15T17:49:00.472Z,2.60
2023-03-15T17:58:47.119Z,2.38
2023-03-15T18:09:07.224Z,3.35
2023-03-15T18:10:12.806Z,2.50
2023-03-15T18:27:08.433Z,2.70
2023-03-15T18:28:11.519Z,2.33
2023-03-15T18:48:55.432Z,2.22
2023-03-15T18:51:32.371Z,2.40
2023-03-15T19:20:38.170Z,3.03
2023-03-15T19:21:42.350Z,2.20
2023-03-15T19:22:47.502Z,2.50
2023-03-15T19:24:08.814Z,3.05
2023-03-15T19:28:31.875Z,1.98
2023-03-15T19:34:43.169Z,2.30
2023-03-15T19:41:46.940Z,2.95
2023-03-15T20:00:10.549Z,3.00
2023-03-15T20:06:09.676Z,4.07
2023-03-15T20:16:41.620Z,3.90
2023-03-15T20:19:38.145Z,3.10
2023-03-15T20:41:02.035Z,3.45
2023-03-15T20:42:12.889Z,3.33
2023-03-15T20:46:20.597Z,3.25
2023-03-15T20:52:20.967Z,4.20
2023-03-15T20:54:09.318Z,3.83
2023-03-15T21:40:18.208Z,5.47
2023-03-15T21:47:25.545Z,5.10
2023-03-15T21:48:27.931Z,4.85
2023-03-15T21:49:32.639Z,4.70
2023-03-15T21:50:35.021Z,5.43
2023-03-15T21:51:38.675Z,5.25
2023-03-15T21:52:40.788Z,5.90
2023-03-15T21:53:46.200Z,4.93
2023-03-15T21:54:48.305Z,5.10
2023-03-15T21:55:53.667Z,5.30
2023-03-15T21:56:55.886Z,6.00
2023-03-15T21:57:59.167Z,4.95
2023-03-15T21:59:01.710Z,5.60
2023-03-15T22:00:11.657Z,5.18
2023-03-15T22:01:14.192Z,5.75
2023-03-15T22:02:17.730Z,5.05
2023-03-15T22:03:25.006Z,6.20
2023-03-15T22:04:28.317Z,5.70
2023-03-15T22:05:30.530Z,5.30
2023-03-15T22:06:33.600Z,5.93
2023-03-15T22:07:35.627Z,5.75
2023-03-15T22:08:38.859Z,7.40
2023-03-15T22:09:41.883Z,7.00
2023-03-15T22:10:44.969Z,6.85
2023-03-15T22:11:47.061Z,6.00
2023-03-15T22:12:50.225Z,6.43
2023-03-15T22:13:52.775Z,5.30
2023-03-15T22:15:05.440Z,6.30
2023-03-15T22:16:08.735Z,5.65
2023-03-15T22:17:13.473Z,5.20
2023-03-15T22:18:16.856Z,5.53
2023-03-15T22:19:20.551Z,7.00
2023-03-15T22:20:25.117Z,5.95
2023-03-15T22:21:27.354Z,6.80
2023-03-15T22:22:31.461Z,6.63
2023-03-15T22:23:34.553Z,6.25
2023-03-15T22:24:36.775Z,6.07
2023-03-15T22:25:40.252Z,6.57
2023-03-15T22:26:43.052Z,7.03
2023-03-15T22:27:46.180Z,5.93
2023-03-15T22:28:49.395Z,5.53
2023-03-15T22:29:52.248Z,6.30
2023-03-15T22:30:55.433Z,6.90
2023-03-15T22:31:57.549Z,5.53
2023-03-15T22:33:01.097Z,5.43
2023-03-15T22:34:04.852Z,5.68
2023-03-15T22:35:09.853Z,6.32
2023-03-15T22:36:11.870Z,7.18
2023-03-15T22:37:15.034Z,7.85
2023-03-15T22:38:17.090Z,6.90
2023-03-15T22:39:22.122Z,6.70
2023-03-15T22:40:25.954Z,7.40
2023-03-15T22:41:29.192Z,5.93
2023-03-15T22:42:31.305Z,5.90
2023-03-15T22:43:35.314Z,6.38
2023-03-15T22:44:37.300Z,6.00
2023-03-15T22:45:41.164Z,6.55
2023-03-15T22:46:43.394Z,6.43
2023-03-15T22:47:46.555Z,6.70
2023-03-15T22:48:48.592Z,6.47
2023-03-15T22:49:52.601Z,7.32
2023-03-15T22:51:00.605Z,6.55
2023-03-15T22:52:03.762Z,6.43
2023-03-15T22:53:05.810Z,6.15
2023-03-15T22:54:09.614Z,6.53
2023-03-15T22:55:12.634Z,6.75
2023-03-15T22:56:15.763Z,7.50
2023-03-15T22:57:17.758Z,7.80
2023-03-15T22:58:20.879Z,7.65
2023-03-15T22:59:28.775Z,6.53
2023-03-15T23:00:31.812Z,7.82
2023-03-15T23:01:34.121Z,7.40
2023-03-15T23:02:37.496Z,7.82
2023-03-15T23:03:39.533Z,7.88
2023-03-15T23:04:42.914Z,8.15
2023-03-15T23:05:45.986Z,7.07
2023-03-15T23:06:51.688Z,8.68
2023-03-15T23:07:53.818Z,10.90
2023-03-15T23:08:56.830Z,14.57
2023-03-15T23:09:59.145Z,11.57
2023-03-15T23:11:05.864Z,8.02
2023-03-15T23:12:08.630Z,7.00
2023-03-15T23:13:12.053Z,7.15
2023-03-15T23:14:14.204Z,7.75
2023-03-15T23:15:18.534Z,7.63
2023-03-15T23:16:23.865Z,8.02
2023-03-15T23:17:27.977Z,6.20
2023-03-15T23:18:36.456Z,7.50
2023-03-15T23:19:44.035Z,7.10
2023-03-15T23:20:50.777Z,8.70
2023-03-15T23:21:57.556Z,11.20
2023-03-15T23:23:05.810Z,15.45
2023-03-15T23:24:10.974Z,17.45
2023-03-15T23:25:17.425Z,17.63
2023-03-15T23:26:25.649Z,13.63
2023-03-15T23:27:29.640Z,13.15
2023-03-15T23:28:33.499Z,12.43
2023-03-15T23:29:53.635Z,12.23
2023-03-15T23:31:10.440Z,11.50
2023-03-15T23:32:13.276Z,9.15
2023-03-15T23:33:17.932Z,8.77
2023-03-15T23:34:23.688Z,9.02
2023-03-15T23:35:36.019Z,7.32
2023-03-15T23:36:45.332Z,7.80
2023-03-15T23:37:57.594Z,7.15
2023-03-15T23:39:00.574Z,6.70
2023-03-15T23:40:13.838Z,7.50
2023-03-15T23:41:16.842Z,7.35
2023-03-15T23:42:28.386Z,7.60
2023-03-15T23:43:34.235Z,7.47
2023-03-15T23:44:40.322Z,7.22
2023-03-15T23:45:43.302Z,7.57
2023-03-15T23:46:56.370Z,7.43
2023-03-15T23:48:04.026Z,6.82
2023-03-15T23:49:12.779Z,7.43
2023-03-15T23:50:16.659Z,6.70
2023-03-15T23:51:22.440Z,5.40
2023-03-15T23:52:30.245Z,6.32
2023-03-15T23:53:42.657Z,6.70
2023-03-15T23:54:49.438Z,6.40
2023-03-15T23:56:01.086Z,6.00
2023-03-15T23:57:20.672Z,6.80
2023-03-15T23:58:39.241Z,6.60
2023-03-15T23:59:57.434Z,6.90
